Time;durP1;ratioP1;P1;durP2;ratioP2;P2;SDS_P1;SDS_P2;PMS_P1;PMS_P2;Temp;Humidity;BMP_temperature;BMP_pressure;BME280_temperature;BME280_humidity;BME280_pressure;Samples;Min_cycle;Max_cycle;Signal;HPM_P1;HPM_P2
2022/07/04 00:00:49;;;;;;;6.55;4.70;;;;;;;;;;5243261;28;20025;-85
2022/07/04 00:03:21;;;;;;;7.47;5.30;;;;;;;;;;5252857;28;20040;-86
2022/07/04 00:06:01;;;;;;;7.43;5.53;;;;;;;;;;5251120;28;20543;-85
2022/07/04 00:08:32;;;;;;;9.63;5.45;;;;;;;;;;5261855;28;20026;-86
2022/07/04 00:11:06;;;;;;;9.25;5.15;;;;;;;;;;5247509;28;20081;-85
2022/07/04 00:13:38;;;;;;;7.38;5.72;;;;;;;;;;5248415;28;20144;-86
2022/07/04 00:16:09;;;;;;;9.60;5.50;;;;;;;;;;5258581;28;20104;-85
2022/07/04 00:18:50;;;;;;;9.73;5.13;;;;;;;;;;5251546;28;20370;-85
2022/07/04 00:21:21;;;;;;;7.80;4.63;;;;;;;;;;5249528;28;20124;-82
2022/07/04 00:23:53;;;;;;;5.97;4.60;;;;;;;;;;5242664;28;20033;-83
2022/07/04 00:26:24;;;;;;;7.70;5.30;;;;;;;;;;5265074;28;20029;-83
2022/07/04 00:28:55;;;;;;;6.78;4.85;;;;;;;;;;5247958;28;20029;-83
2022/07/04 00:31:26;;;;;;;6.97;4.55;;;;;;;;;;5269818;28;20037;-83
2022/07/04 00:33:58;;;;;;;5.30;4.45;;;;;;;;;;5273326;28;20086;-83
2022/07/04 00:36:29;;;;;;;6.18;4.60;;;;;;;;;;5276637;28;20029;-83
2022/07/04 00:39:00;;;;;;;6.35;4.57;;;;;;;;;;5269519;28;20087;-83
2022/07/04 00:41:31;;;;;;;6.38;4.60;;;;;;;;;;5246518;28;20037;-83
2022/07/04 00:44:04;;;;;;;6.57;4.65;;;;;;;;;;5246952;28;20051;-84
2022/07/04 00:46:35;;;;;;;6.47;4.68;;;;;;;;;;5247114;28;20173;-84
2022/07/04 00:49:13;;;;;;;8.85;5.38;;;;;;;;;;5253265;28;20065;-83
2022/07/04 00:51:45;;;;;;;6.40;4.90;;;;;;;;;;5263988;28;20033;-83
2022/07/04 00:54:21;;;;;;;7.95;4.80;;;;;;;;;;5275885;28;20484;-83
2022/07/04 00:56:53;;;;;;;8.18;4.90;;;;;;;;;;5270592;28;20029;-83
2022/07/04 00:59:25;;;;;;;5.82;4.50;;;;;;;;;;5264338;28;20037;-84
2022/07/04 01:01:56;;;;;;;7.07;5.10;;;;;;;;;;5277474;28;20039;-83
2022/07/04 01:04:27;;;;;;;8.57;5.27;;;;;;;;;;5267610;28;20132;-83
2022/07/04 01:06:59;;;;;;;5.35;4.85;;;;;;;;;;5300542;28;20397;-83
2022/07/04 01:09:30;;;;;;;5.40;4.90;;;;;;;;;;5295142;28;20041;-84
2022/07/04 01:12:01;;;;;;;6.47;5.07;;;;;;;;;;5292704;28;20088;-84
2022/07/04 01:14:36;;;;;;;5.35;4.85;;;;;;;;;;5298870;28;20033;-84
2022/07/04 01:17:07;;;;;;;8.32;5.25;;;;;;;;;;5301077;28;20037;-84
2022/07/04 01:19:38;;;;;;;10.40;5.00;;;;;;;;;;5275590;28;20077;-84
2022/07/04 01:22:09;;;;;;;7.40;4.93;;;;;;;;;;5254313;28;20025;-84
2022/07/04 01:24:41;;;;;;;6.80;4.63;;;;;;;;;;5273420;28;20026;-84
2022/07/04 01:27:12;;;;;;;6.18;4.95;;;;;;;;;;5264295;28;20033;-84
2022/07/04 01:29:43;;;;;;;5.53;4.93;;;;;;;;;;5250607;28;20075;-84
2022/07/04 01:32:14;;;;;;;7.68;4.78;;;;;;;;;;5272205;28;20056;-84
2022/07/04 01:34:46;;;;;;;8.60;4.77;;;;;;;;;;5274012;28;20091;-84
2022/07/04 01:37:17;;;;;;;5.43;4.73;;;;;;;;;;5276238;28;20284;-84
2022/07/04 01:39:48;;;;;;;7.55;5.40;;;;;;;;;;5261779;28;20271;-83
2022/07/04 01:42:19;;;;;;;5.87;5.27;;;;;;;;;;5258675;28;20033;-83
2022/07/04 01:44:51;;;;;;;9.82;4.65;;;;;;;;;;5272851;28;20283;-84
2022/07/04 01:47:22;;;;;;;7.78;5.38;;;;;;;;;;5267964;28;20110;-84
2022/07/04 01:49:53;;;;;;;8.82;5.35;;;;;;;;;;5256727;28;20029;-83
2022/07/04 01:52:24;;;;;;;8.20;5.00;;;;;;;;;;5258673;28;20123;-82
2022/07/04 01:54:56;;;;;;;7.47;4.68;;;;;;;;;;5265470;28;20029;-83
2022/07/04 01:57:27;;;;;;;7.23;4.57;;;;;;;;;;5281678;28;20580;-83
2022/07/04 02:02:48;;;;;;;6.68;4.28;;;;;;;;;;5277043;28;20041;-82
2022/07/04 02:05:19;;;;;;;5.60;4.72;;;;;;;;;;5261291;28;20365;-82
2022/07/04 02:07:50;;;;;;;5.85;5.13;;;;;;;;;;5280621;28;20104;-83
2022/07/04 02:10:22;;;;;;;4.73;4.27;;;;;;;;;;5260607;28;20036;-82
2022/07/04 02:13:02;;;;;;;6.50;4.43;;;;;;;;;;5277993;28;20280;-82
2022/07/04 02:15:35;;;;;;;7.60;5.47;;;;;;;;;;5258984;28;21009;-82
2022/07/04 02:18:07;;;;;;;10.57;6.22;;;;;;;;;;5280921;28;20031;-82
2022/07/04 02:20:39;;;;;;;8.90;5.80;;;;;;;;;;5261299;28;20469;-83
2022/07/04 02:23:10;;;;;;;7.43;6.63;;;;;;;;;;5282194;28;20069;-85
2022/07/04 02:25:41;;;;;;;7.43;6.67;;;;;;;;;;5286427;28;20291;-83
2022/07/04 02:28:12;;;;;;;6.68;6.07;;;;;;;;;;5295825;28;20275;-84
2022/07/04 02:30:43;;;;;;;7.35;6.60;;;;;;;;;;5284621;28;20029;-84
2022/07/04 02:33:15;;;;;;;9.23;7.03;;;;;;;;;;5301247;28;20128;-84
2022/07/04 02:35:46;;;;;;;9.63;6.72;;;;;;;;;;5295793;28;20708;-84
2022/07/04 02:38:17;;;;;;;9.68;6.95;;;;;;;;;;5295292;28;21740;-84
2022/07/04 02:40:48;;;;;;;8.82;6.55;;;;;;;;;;5281171;28;20029;-84
2022/07/04 02:43:19;;;;;;;8.70;6.47;;;;;;;;;;5268016;28;20037;-84
2022/07/04 02:45:51;;;;;;;10.80;7.63;;;;;;;;;;5284050;28;20279;-83
2022/07/04 02:48:22;;;;;;;11.57;7.37;;;;;;;;;;5283422;28;20029;-84
2022/07/04 02:50:53;;;;;;;7.53;6.35;;;;;;;;;;5283829;28;20833;-84
2022/07/04 02:53:24;;;;;;;10.45;7.18;;;;;;;;;;5267154;28;20049;-84
2022/07/04 02:55:55;;;;;;;7.23;6.57;;;;;;;;;;5284323;28;20040;-83
2022/07/04 02:58:28;;;;;;;10.83;6.70;;;;;;;;;;5275518;28;20306;-84
2022/07/04 03:00:59;;;;;;;10.80;6.90;;;;;;;;;;5265059;28;20274;-84
2022/07/04 03:03:30;;;;;;;7.85;6.78;;;;;;;;;;5253803;28;20045;-84
2022/07/04 03:06:04;;;;;;;9.60;7.47;;;;;;;;;;5259911;28;20021;-84
2022/07/04 03:08:36;;;;;;;9.07;7.57;;;;;;;;;;5263186;28;20053;-84
2022/07/04 03:11:07;;;;;;;11.38;6.97;;;;;;;;;;5278703;28;20088;-84
2022/07/04 03:13:39;;;;;;;8.98;6.88;;;;;;;;;;5261252;28;20037;-83
2022/07/04 03:16:11;;;;;;;10.70;6.88;;;;;;;;;;5278881;28;20457;-85
2022/07/04 03:18:42;;;;;;;9.75;7.00;;;;;;;;;;5261408;28;20043;-85
2022/07/04 03:21:13;;;;;;;9.60;7.20;;;;;;;;;;5261707;28;20055;-83
2022/07/04 03:23:57;;;;;;;7.63;6.35;;;;;;;;;;5260024;28;20328;-83
2022/07/04 03:26:31;;;;;;;12.07;7.38;;;;;;;;;;5259894;28;20033;-83
2022/07/04 03:29:03;;;;;;;7.63;6.85;;;;;;;;;;5260628;28;21050;-83
2022/07/04 03:31:34;;;;;;;11.80;7.30;;;;;;;;;;5261799;28;20020;-84
2022/07/04 03:34:05;;;;;;;11.65;7.03;;;;;;;;;;5262316;28;20495;-84
2022/07/04 03:36:36;;;;;;;8.52;6.65;;;;;;;;;;5279257;28;20032;-83
2022/07/04 03:39:08;;;;;;;12.97;7.17;;;;;;;;;;5248742;28;20039;-83
2022/07/04 03:41:39;;;;;;;10.65;8.13;;;;;;;;;;5256390;28;20277;-83
2022/07/04 03:44:13;;;;;;;8.80;6.80;;;;;;;;;;5273727;28;20061;-83
2022/07/04 03:46:44;;;;;;;10.48;7.03;;;;;;;;;;5257968;28;20127;-84
2022/07/04 03:49:15;;;;;;;8.90;7.32;;;;;;;;;;5273460;28;20084;-83
2022/07/04 03:51:46;;;;;;;9.37;6.93;;;;;;;;;;5248791;28;20361;-83
2022/07/04 03:54:18;;;;;;;10.52;7.05;;;;;;;;;;5266078;28;20256;-83
2022/07/04 03:56:49;;;;;;;11.90;6.88;;;;;;;;;;5266082;28;20053;-83
2022/07/04 03:59:20;;;;;;;9.65;7.20;;;;;;;;;;5288193;28;20059;-83
2022/07/04 04:01:52;;;;;;;9.75;7.60;;;;;;;;;;5275587;28;20040;-83
2022/07/04 04:07:12;;;;;;;9.85;7.38;;;;;;;;;;5278861;28;20032;-83
2022/07/04 04:09:44;;;;;;;9.43;6.70;;;;;;;;;;5276896;28;20039;-83
2022/07/04 04:12:15;;;;;;;11.73;7.40;;;;;;;;;;5260790;28;20702;-84
2022/07/04 04:14:46;;;;;;;10.00;7.05;;;;;;;;;;5256092;28;20512;-84
2022/07/04 04:17:20;;;;;;;9.25;7.25;;;;;;;;;;5264142;28;20056;-83
2022/07/04 04:19:51;;;;;;;9.98;7.65;;;;;;;;;;5287303;28;20028;-83
2022/07/04 04:22:22;;;;;;;12.45;7.75;;;;;;;;;;5281590;28;20044;-84
2022/07/04 04:24:54;;;;;;;8.15;7.25;;;;;;;;;;5287745;28;20033;-84
2022/07/04 04:27:25;;;;;;;9.50;6.68;;;;;;;;;;5258094;28;20044;-84
2022/07/04 04:29:56;;;;;;;11.88;7.38;;;;;;;;;;5273747;28;20033;-84
2022/07/04 04:32:28;;;;;;;11.68;7.38;;;;;;;;;;5273888;28;20037;-84
2022/07/04 04:34:59;;;;;;;8.32;7.25;;;;;;;;;;5258521;28;20076;-83
2022/07/04 04:37:30;;;;;;;10.48;6.40;;;;;;;;;;5262920;28;20037;-83
2022/07/04 04:40:01;;;;;;;15.63;6.93;;;;;;;;;;5258001;28;20033;-83
2022/07/04 04:42:33;;;;;;;7.53;6.57;;;;;;;;;;5258963;28;20887;-84
2022/07/04 04:45:04;;;;;;;8.32;6.15;;;;;;;;;;5256625;28;20057;-83
2022/07/04 04:47:36;;;;;;;14.13;7.03;;;;;;;;;;5276597;28;20037;-84
2022/07/04 04:50:11;;;;;;;10.73;6.15;;;;;;;;;;5275063;28;20063;-83
2022/07/04 04:52:42;;;;;;;9.00;6.43;;;;;;;;;;5260839;28;20042;-81
2022/07/04 04:55:13;;;;;;;9.02;6.05;;;;;;;;;;5238474;28;20370;-81
2022/07/04 04:57:45;;;;;;;16.83;6.27;;;;;;;;;;5255720;28;20437;-81
2022/07/04 05:00:16;;;;;;;8.50;6.13;;;;;;;;;;5236887;28;20378;-81
2022/07/04 05:02:50;;;;;;;13.55;6.10;;;;;;;;;;5257400;28;20280;-81
2022/07/04 05:05:21;;;;;;;6.55;5.38;;;;;;;;;;5234663;28;20124;-81
2022/07/04 05:07:53;;;;;;;10.48;5.68;;;;;;;;;;5257755;28;20064;-81
2022/07/04 05:10:24;;;;;;;12.82;5.85;;;;;;;;;;5239240;28;20036;-81
2022/07/04 05:12:55;;;;;;;9.88;6.10;;;;;;;;;;5269656;28;20037;-81
2022/07/04 05:15:26;;;;;;;10.00;6.50;;;;;;;;;;5258480;28;20080;-80
2022/07/04 05:17:57;;;;;;;11.27;6.22;;;;;;;;;;5258585;28;20372;-82
2022/07/04 05:20:29;;;;;;;9.37;5.97;;;;;;;;;;5264078;28;20049;-80
2022/07/04 05:23:00;;;;;;;7.63;5.57;;;;;;;;;;5240589;28;20282;-81
2022/07/04 05:25:32;;;;;;;8.30;4.88;;;;;;;;;;5264465;28;20264;-80
2022/07/04 05:28:03;;;;;;;7.82;5.53;;;;;;;;;;5236255;28;20385;-81
2022/07/04 05:30:34;;;;;;;8.68;4.88;;;;;;;;;;5256022;28;20145;-81
2022/07/04 05:33:06;;;;;;;11.30;4.97;;;;;;;;;;5253887;28;20032;-81
2022/07/04 05:35:37;;;;;;;6.80;4.57;;;;;;;;;;5256199;28;20257;-81
2022/07/04 05:38:08;;;;;;;8.48;4.00;;;;;;;;;;5256749;28;20117;-81
2022/07/04 05:40:39;;;;;;;9.17;4.67;;;;;;;;;;5258317;28;20018;-81
2022/07/04 05:43:11;;;;;;;9.57;4.65;;;;;;;;;;5259636;28;20366;-81
2022/07/04 05:45:43;;;;;;;7.43;4.15;;;;;;;;;;5259491;28;20537;-81
2022/07/04 05:48:14;;;;;;;9.85;5.15;;;;;;;;;;5240179;28;20033;-81
2022/07/04 05:50:45;;;;;;;7.20;3.95;;;;;;;;;;5259751;28;20496;-81
2022/07/04 05:53:16;;;;;;;5.90;3.47;;;;;;;;;;5265878;28;20385;-81
2022/07/04 05:55:47;;;;;;;7.23;4.20;;;;;;;;;;5283272;28;20390;-81
2022/07/04 05:58:19;;;;;;;6.70;3.93;;;;;;;;;;5284444;28;20724;-81
2022/07/04 06:00:50;;;;;;;8.23;4.00;;;;;;;;;;5287606;28;20036;-80
2022/07/04 06:03:21;;;;;;;9.13;3.60;;;;;;;;;;5291273;28;20044;-81
2022/07/04 06:05:55;;;;;;;8.93;4.20;;;;;;;;;;5289270;28;20035;-81
2022/07/04 06:08:26;;;;;;;5.70;3.45;;;;;;;;;;5289032;28;20032;-81
2022/07/04 06:10:58;;;;;;;6.43;3.85;;;;;;;;;;5286253;28;20025;-81
2022/07/04 06:13:29;;;;;;;8.30;3.38;;;;;;;;;;5280962;28;20068;-81
2022/07/04 06:16:01;;;;;;;5.20;2.97;;;;;;;;;;5291514;28;20033;-81
2022/07/04 06:18:32;;;;;;;9.95;3.28;;;;;;;;;;5294234;28;20407;-82
2022/07/04 06:21:03;;;;;;;6.90;2.97;;;;;;;;;;5294404;28;20096;-81
2022/07/04 06:23:34;;;;;;;6.67;3.07;;;;;;;;;;5282591;28;20029;-81
2022/07/04 06:26:05;;;;;;;7.67;3.07;;;;;;;;;;5265618;28;20060;-80
2022/07/04 06:28:37;;;;;;;5.20;2.67;;;;;;;;;;5281084;28;20276;-81
2022/07/04 06:31:08;;;;;;;5.78;3.25;;;;;;;;;;5281532;28;20302;-81
2022/07/04 06:36:30;;;;;;;7.63;3.88;;;;;;;;;;5305427;28;20139;-81
2022/07/04 06:39:01;;;;;;;8.15;3.25;;;;;;;;;;5269952;28;20025;-80
2022/07/04 06:41:32;;;;;;;6.25;2.67;;;;;;;;;;5244949;28;20024;-81
2022/07/04 06:44:04;;;;;;;6.87;2.80;;;;;;;;;;5263052;28;20093;-80
2022/07/04 06:46:35;;;;;;;6.90;2.80;;;;;;;;;;5267990;28;20108;-81
2022/07/04 06:49:06;;;;;;;6.05;3.22;;;;;;;;;;5282947;28;20091;-81
2022/07/04 06:51:38;;;;;;;7.20;2.40;;;;;;;;;;5266332;28;20013;-81
2022/07/04 06:54:09;;;;;;;5.95;2.45;;;;;;;;;;5283763;28;20041;-81
2022/07/04 06:56:40;;;;;;;5.50;2.50;;;;;;;;;;5284221;28;20013;-81
2022/07/04 06:59:11;;;;;;;4.75;1.67;;;;;;;;;;5284378;28;20029;-81
2022/07/04 07:01:43;;;;;;;3.97;1.60;;;;;;;;;;5290333;28;20025;-81
2022/07/04 07:04:14;;;;;;;4.63;1.98;;;;;;;;;;5286050;28;20087;-80
2022/07/04 07:06:45;;;;;;;4.30;1.70;;;;;;;;;;5305187;28;20020;-81
2022/07/04 07:09:16;;;;;;;3.90;1.80;;;;;;;;;;5304799;28;20096;-81
2022/07/04 07:11:47;;;;;;;3.67;1.70;;;;;;;;;;5303221;28;20239;-81
2022/07/04 07:14:19;;;;;;;8.95;2.72;;;;;;;;;;5303092;28;20020;-81
2022/07/04 07:16:50;;;;;;;5.57;1.80;;;;;;;;;;5262076;28;20525;-81
2022/07/04 07:19:21;;;;;;;3.70;1.53;;;;;;;;;;5262631;28;20476;-81
2022/07/04 07:21:52;;;;;;;3.93;1.40;;;;;;;;;;5262627;28;20450;-81
2022/07/04 07:24:25;;;;;;;3.87;1.47;;;;;;;;;;5267484;28;20392;-81
2022/07/04 07:26:57;;;;;;;4.47;1.52;;;;;;;;;;5290667;28;20028;-81
2022/07/04 07:29:28;;;;;;;5.97;2.28;;;;;;;;;;5305027;28;20025;-80
2022/07/04 07:32:00;;;;;;;4.15;1.70;;;;;;;;;;5304512;28;20024;-80
2022/07/04 07:34:31;;;;;;;4.82;2.10;;;;;;;;;;5304547;28;20035;-80
2022/07/04 07:37:03;;;;;;;3.35;1.63;;;;;;;;;;5300151;28;20082;-81
2022/07/04 07:39:34;;;;;;;4.97;1.05;;;;;;;;;;5277633;28;20026;-81
2022/07/04 07:42:05;;;;;;;3.42;1.40;;;;;;;;;;5304274;28;20033;-81
2022/07/04 07:44:36;;;;;;;3.63;1.77;;;;;;;;;;5304331;28;20103;-82
2022/07/04 07:47:08;;;;;;;2.70;1.30;;;;;;;;;;5304108;28;20024;-82
2022/07/04 07:49:40;;;;;;;3.95;1.30;;;;;;;;;;5304759;28;20031;-81
2022/07/04 07:52:15;;;;;;;3.65;1.30;;;;;;;;;;5274401;28;20032;-81
2022/07/04 07:54:46;;;;;;;3.90;1.08;;;;;;;;;;5304446;28;20581;-81
2022/07/04 07:57:18;;;;;;;5.15;1.40;;;;;;;;;;5306071;28;20025;-81
2022/07/04 07:59:49;;;;;;;3.97;1.20;;;;;;;;;;5304644;28;20027;-81
2022/07/04 08:04:33;;;;;;;4.77;1.87;;;;;;;;;;5290708;28;20040;-81
2022/07/04 08:05:12;;;;;;;4.85;1.13;;;;;;;;;;5286888;28;20029;-81
2022/07/04 08:07:43;;;;;;;2.78;1.17;;;;;;;;;;5302866;28;20039;-80
2022/07/04 08:10:14;;;;;;;3.20;1.13;;;;;;;;;;5309581;28;20380;-81
2022/07/04 08:12:49;;;;;;;4.57;1.17;;;;;;;;;;5305396;28;20119;-80
2022/07/04 08:15:20;;;;;;;5.65;1.63;;;;;;;;;;5285801;28;20020;-81
2022/07/04 08:17:53;;;;;;;3.50;1.10;;;;;;;;;;5301456;28;20035;-81
2022/07/04 08:20:24;;;;;;;2.58;0.93;;;;;;;;;;5286174;28;20037;-81
2022/07/04 08:22:55;;;;;;;7.37;1.63;;;;;;;;;;5292542;28;20053;-81
2022/07/04 08:25:26;;;;;;;4.90;1.10;;;;;;;;;;5268614;28;20156;-81
2022/07/04 08:27:57;;;;;;;3.70;1.27;;;;;;;;;;5263313;28;20365;-81
2022/07/04 08:30:29;;;;;;;3.23;1.00;;;;;;;;;;5262717;28;20477;-81
2022/07/04 08:33:00;;;;;;;2.07;0.97;;;;;;;;;;5303163;28;20032;-81
2022/07/04 08:35:31;;;;;;;3.77;1.70;;;;;;;;;;5303954;28;20259;-81
2022/07/04 08:38:02;;;;;;;7.90;1.63;;;;;;;;;;5285333;28;20499;-81
2022/07/04 08:40:33;;;;;;;4.03;1.30;;;;;;;;;;5281373;28;20032;-81
2022/07/04 08:43:05;;;;;;;3.28;1.05;;;;;;;;;;5290186;28;20037;-81
2022/07/04 08:45:36;;;;;;;4.33;1.10;;;;;;;;;;5303497;28;20535;-81
2022/07/04 08:48:08;;;;;;;6.75;1.48;;;;;;;;;;5285677;28;20311;-81
2022/07/04 08:50:49;;;;;;;4.20;1.10;;;;;;;;;;5303102;28;20028;-81
2022/07/04 08:53:21;;;;;;;3.10;0.93;;;;;;;;;;5303293;28;20049;-81
2022/07/04 08:58:43;;;;;;;11.77;1.65;;;;;;;;;;5282187;28;20037;-81
2022/07/04 09:01:17;;;;;;;6.65;1.17;;;;;;;;;;5280864;28;20408;-81
2022/07/04 09:03:49;;;;;;;4.97;0.98;;;;;;;;;;5297664;28;20056;-81
2022/07/04 09:06:21;;;;;;;3.00;0.90;;;;;;;;;;5303461;28;20366;-81
2022/07/04 09:08:53;;;;;;;4.03;1.08;;;;;;;;;;5303320;28;20034;-81
2022/07/04 09:11:24;;;;;;;5.45;1.10;;;;;;;;;;5273471;28;20035;-81
2022/07/04 09:13:56;;;;;;;2.40;0.90;;;;;;;;;;5307292;28;20024;-81
2022/07/04 09:16:27;;;;;;;3.92;0.90;;;;;;;;;;5308074;28;20215;-79
2022/07/04 09:18:58;;;;;;;7.03;1.43;;;;;;;;;;5306689;28;20110;-81
2022/07/04 09:21:46;;;;;;;4.90;1.10;;;;;;;;;;5308400;28;20020;-81
2022/07/04 09:24:37;;;;;;;2.55;0.70;;;;;;;;;;5284541;28;20431;-81
2022/07/04 09:27:08;;;;;;;4.55;1.27;;;;;;;;;;5245966;28;20434;-81
2022/07/04 09:29:51;;;;;;;5.10;0.93;;;;;;;;;;5284737;28;20024;-81
2022/07/04 09:32:40;;;;;;;3.28;0.93;;;;;;;;;;5284725;28;20556;-81
2022/07/04 09:35:21;;;;;;;3.33;1.05;;;;;;;;;;5284474;28;20040;-81
2022/07/04 09:37:54;;;;;;;2.17;0.80;;;;;;;;;;5285564;28;20064;-81
2022/07/04 09:40:25;;;;;;;3.63;1.20;;;;;;;;;;5267651;28;20029;-81
2022/07/04 09:42:58;;;;;;;3.87;1.10;;;;;;;;;;5285500;28;20503;-81
2022/07/04 09:45:29;;;;;;;2.85;1.20;;;;;;;;;;5285074;28;20024;-81
2022/07/04 09:48:00;;;;;;;2.87;1.10;;;;;;;;;;5284600;28;20033;-79
2022/07/04 09:50:31;;;;;;;3.70;1.03;;;;;;;;;;5294824;28;20056;-80
2022/07/04 09:53:03;;;;;;;4.93;1.00;;;;;;;;;;5303496;28;20295;-79
2022/07/04 09:55:37;;;;;;;2.22;0.85;;;;;;;;;;5284186;28;20465;-79
2022/07/04 09:58:12;;;;;;;3.47;1.00;;;;;;;;;;5266648;28;20084;-79
2022/07/04 10:00:44;;;;;;;3.92;1.20;;;;;;;;;;5284271;28;20021;-79
2022/07/04 10:03:15;;;;;;;5.45;1.35;;;;;;;;;;5266925;28;20033;-79
2022/07/04 10:06:00;;;;;;;4.50;0.90;;;;;;;;;;5298997;28;20405;-80
2022/07/04 10:08:32;;;;;;;3.22;1.20;;;;;;;;;;5305935;28;20045;-80
2022/07/04 10:11:04;;;;;;;2.72;1.13;;;;;;;;;;5306137;28;20515;-79
2022/07/04 10:13:35;;;;;;;4.20;1.17;;;;;;;;;;5306489;28;20161;-79
2022/07/04 10:16:09;;;;;;;8.35;1.33;;;;;;;;;;5305368;28;20092;-79
2022/07/04 10:18:41;;;;;;;3.58;0.95;;;;;;;;;;5286100;28;20095;-79
2022/07/04 10:21:12;;;;;;;3.22;0.98;;;;;;;;;;5266330;28;20112;-79
2022/07/04 10:23:45;;;;;;;3.25;1.20;;;;;;;;;;5283858;28;20029;-80
2022/07/04 10:26:20;;;;;;;6.03;1.02;;;;;;;;;;5284195;28;20032;-79
2022/07/04 10:28:52;;;;;;;3.13;1.20;;;;;;;;;;5284977;28;20029;-80
2022/07/04 10:31:24;;;;;;;3.65;1.70;;;;;;;;;;5304874;28;20392;-80
2022/07/04 10:33:57;;;;;;;3.75;1.25;;;;;;;;;;5299025;28;20027;-80
2022/07/04 10:36:30;;;;;;;4.25;1.20;;;;;;;;;;5284243;28;20101;-80
2022/07/04 10:39:02;;;;;;;5.72;1.38;;;;;;;;;;5257891;28;20084;-80
2022/07/04 10:41:33;;;;;;;4.13;0.95;;;;;;;;;;5263236;28;20060;-81
2022/07/04 10:44:14;;;;;;;5.67;0.93;;;;;;;;;;5267734;28;20072;-80
2022/07/04 10:46:49;;;;;;;4.55;1.10;;;;;;;;;;5289655;28;20259;-80
2022/07/04 10:49:22;;;;;;;6.28;1.60;;;;;;;;;;5284351;28;20043;-79
2022/07/04 10:52:00;;;;;;;3.80;1.00;;;;;;;;;;5291683;28;20047;-80
2022/07/04 10:54:32;;;;;;;2.40;1.15;;;;;;;;;;5290775;28;20056;-80
2022/07/04 10:57:13;;;;;;;7.22;1.20;;;;;;;;;;5286851;28;20039;-81
2022/07/04 10:59:53;;;;;;;5.28;1.30;;;;;;;;;;5286538;28;20027;-80
2022/07/04 11:02:29;;;;;;;4.93;1.30;;;;;;;;;;5304937;28;20036;-81
2022/07/04 11:05:03;;;;;;;3.25;1.30;;;;;;;;;;5306084;28;20020;-81
2022/07/04 11:07:37;;;;;;;2.67;1.02;;;;;;;;;;5305501;28;20086;-81
2022/07/04 11:10:16;;;;;;;3.05;1.13;;;;;;;;;;5305235;28;20056;-80
2022/07/04 11:12:53;;;;;;;3.47;1.10;;;;;;;;;;5282811;28;20059;-81
2022/07/04 11:15:24;;;;;;;4.32;1.33;;;;;;;;;;5283648;28;20025;-81
2022/07/04 11:17:57;;;;;;;3.63;1.00;;;;;;;;;;5283617;28;20051;-81
2022/07/04 11:20:29;;;;;;;5.55;1.35;;;;;;;;;;5283795;28;20033;-81
2022/07/04 11:23:10;;;;;;;4.00;1.50;;;;;;;;;;5283652;28;20028;-81
2022/07/04 11:25:43;;;;;;;2.55;1.00;;;;;;;;;;5280625;28;20044;-80
2022/07/04 11:28:17;;;;;;;7.32;1.27;;;;;;;;;;5290735;28;20021;-81
2022/07/04 11:31:00;;;;;;;6.07;1.47;;;;;;;;;;5269573;28;20033;-81
2022/07/04 11:33:32;;;;;;;3.50;1.10;;;;;;;;;;5283123;28;20534;-80
2022/07/04 11:36:14;;;;;;;3.53;1.30;;;;;;;;;;5263793;28;20027;-80
2022/07/04 11:38:45;;;;;;;3.60;1.23;;;;;;;;;;5286159;28;20119;-81
2022/07/04 11:47:21;;;;;;;8.07;1.67;;;;;;;;;;5282370;28;20029;-80
2022/07/04 11:49:53;;;;;;;4.13;1.88;;;;;;;;;;5269174;28;20053;-80
2022/07/04 11:52:26;;;;;;;4.35;1.80;;;;;;;;;;5283312;28;20048;-80
2022/07/04 11:54:57;;;;;;;7.50;2.15;;;;;;;;;;5283012;28;20033;-81
2022/07/04 11:57:30;;;;;;;3.38;1.50;;;;;;;;;;5283313;28;20405;-81
2022/07/04 12:00:06;;;;;;;4.13;1.73;;;;;;;;;;5266454;28;20021;-80
2022/07/04 12:02:37;;;;;;;4.35;1.55;;;;;;;;;;5261020;28;20461;-80
2022/07/04 12:05:11;;;;;;;5.00;1.85;;;;;;;;;;5240176;28;20069;-81
2022/07/04 12:07:44;;;;;;;8.63;2.00;;;;;;;;;;5241226;28;20045;-81
2022/07/04 12:10:16;;;;;;;5.80;1.90;;;;;;;;;;5257266;28;20396;-80
2022/07/04 12:12:54;;;;;;;3.78;1.98;;;;;;;;;;5263978;28;20417;-80
2022/07/04 12:15:35;;;;;;;5.35;1.98;;;;;;;;;;5266803;28;20492;-80
2022/07/04 12:18:17;;;;;;;5.40;1.90;;;;;;;;;;5268579;28;20029;-80
2022/07/04 12:20:49;;;;;;;3.33;1.73;;;;;;;;;;5274159;28;20072;-81
2022/07/04 12:23:21;;;;;;;5.57;2.13;;;;;;;;;;5285469;28;20029;-79
2022/07/04 12:25:55;;;;;;;5.28;1.90;;;;;;;;;;5283079;28;20018;-79
2022/07/04 12:28:34;;;;;;;4.57;1.70;;;;;;;;;;5281744;28;20018;-80
2022/07/04 12:31:05;;;;;;;3.15;1.20;;;;;;;;;;5280736;28;20036;-78
2022/07/04 12:33:36;;;;;;;10.73;2.33;;;;;;;;;;5272500;28;20047;-80
2022/07/04 12:36:07;;;;;;;9.83;1.87;;;;;;;;;;5259859;28;20025;-80
2022/07/04 12:38:41;;;;;;;13.73;2.03;;;;;;;;;;5264845;28;20436;-80
2022/07/04 12:41:13;;;;;;;5.05;1.83;;;;;;;;;;5260585;28;20026;-80
2022/07/04 12:43:45;;;;;;;4.00;1.42;;;;;;;;;;5262846;28;20496;-80
2022/07/04 12:46:33;;;;;;;5.43;1.35;;;;;;;;;;5281819;28;20187;-81
2022/07/04 12:49:04;;;;;;;3.42;1.17;;;;;;;;;;5285861;28;20035;-81
2022/07/04 12:51:35;;;;;;;3.23;1.43;;;;;;;;;;5268308;28;20021;-81
2022/07/04 12:54:08;;;;;;;3.60;1.73;;;;;;;;;;5243659;28;20046;-81
2022/07/04 12:56:40;;;;;;;3.67;1.42;;;;;;;;;;5264231;28;20371;-80
2022/07/04 12:59:13;;;;;;;4.28;1.58;;;;;;;;;;5286253;28;20025;-80
2022/07/04 13:01:44;;;;;;;4.97;2.10;;;;;;;;;;5285296;28;20024;-81
2022/07/04 13:04:16;;;;;;;8.02;1.80;;;;;;;;;;5285808;28;20059;-81
2022/07/04 13:06:47;;;;;;;4.00;1.60;;;;;;;;;;5278278;28;20026;-81
2022/07/04 13:09:18;;;;;;;7.03;1.90;;;;;;;;;;5277111;28;20032;-81
2022/07/04 13:14:39;;;;;;;3.53;1.55;;;;;;;;;;5274870;28;20025;-81
2022/07/04 13:17:10;;;;;;;4.13;2.10;;;;;;;;;;5285028;28;20040;-80
2022/07/04 13:19:42;;;;;;;4.93;1.90;;;;;;;;;;5285939;28;20345;-80
2022/07/04 13:22:13;;;;;;;5.00;1.70;;;;;;;;;;5285287;28;20029;-80
2022/07/04 13:24:44;;;;;;;5.22;1.67;;;;;;;;;;5276843;28;20064;-80
2022/07/04 13:27:16;;;;;;;2.63;1.20;;;;;;;;;;5262552;28;20317;-81
2022/07/04 13:29:48;;;;;;;2.95;1.40;;;;;;;;;;5245188;28;20113;-81
2022/07/04 13:32:19;;;;;;;5.07;1.73;;;;;;;;;;5243061;28;20044;-80
2022/07/04 13:34:51;;;;;;;5.57;1.50;;;;;;;;;;5227157;28;20022;-81
2022/07/04 13:37:22;;;;;;;3.30;1.33;;;;;;;;;;5264648;28;20488;-81
2022/07/04 13:39:53;;;;;;;2.40;1.13;;;;;;;;;;5249300;28;20085;-81
2022/07/04 13:45:15;;;;;;;3.33;1.30;;;;;;;;;;5271394;28;20101;-80
2022/07/04 13:47:46;;;;;;;2.58;1.17;;;;;;;;;;5255498;28;20040;-80
2022/07/04 13:50:18;;;;;;;4.93;1.10;;;;;;;;;;5269938;28;20049;-80
2022/07/04 13:52:49;;;;;;;3.72;1.33;;;;;;;;;;5290004;28;20358;-81
2022/07/04 13:55:21;;;;;;;6.03;1.30;;;;;;;;;;5307056;28;20104;-80
2022/07/04 13:57:52;;;;;;;4.53;1.40;;;;;;;;;;5286977;28;20021;-81
2022/07/04 14:00:23;;;;;;;5.88;1.20;;;;;;;;;;5306000;28;20038;-80
2022/07/04 14:02:55;;;;;;;3.38;1.20;;;;;;;;;;5301338;28;20032;-81
2022/07/04 14:05:27;;;;;;;3.78;1.20;;;;;;;;;;5279446;28;20026;-80
2022/07/04 14:07:58;;;;;;;5.18;1.50;;;;;;;;;;5264558;28;20025;-81
2022/07/04 14:10:30;;;;;;;2.92;1.25;;;;;;;;;;5264082;28;20088;-82
2022/07/04 14:13:01;;;;;;;5.07;1.20;;;;;;;;;;5264739;28;20060;-81
2022/07/04 14:15:32;;;;;;;2.00;1.10;;;;;;;;;;5278928;28;20033;-81
2022/07/04 14:18:07;;;;;;;3.30;1.48;;;;;;;;;;5304109;28;20028;-81
2022/07/04 14:20:38;;;;;;;2.67;1.37;;;;;;;;;;5306010;28;20100;-81
2022/07/04 14:23:09;;;;;;;3.40;1.20;;;;;;;;;;5305879;28;20501;-81
2022/07/04 14:25:40;;;;;;;5.03;1.53;;;;;;;;;;5289643;28;20108;-81
2022/07/04 14:28:12;;;;;;;6.23;1.57;;;;;;;;;;5285078;28;20032;-81
2022/07/04 14:30:43;;;;;;;14.97;2.20;;;;;;;;;;5299777;28;20051;-80
2022/07/04 14:33:14;;;;;;;5.77;1.60;;;;;;;;;;5306300;28;20078;-80
2022/07/04 14:35:45;;;;;;;6.07;1.50;;;;;;;;;;5306111;28;20098;-81
2022/07/04 14:38:17;;;;;;;10.10;2.00;;;;;;;;;;5290609;28;20033;-81
2022/07/04 14:40:49;;;;;;;3.05;1.90;;;;;;;;;;5298090;28;20286;-80
2022/07/04 14:43:20;;;;;;;7.63;1.90;;;;;;;;;;5305764;28;20510;-80
2022/07/04 14:45:51;;;;;;;3.87;1.87;;;;;;;;;;5305262;28;20105;-81
2022/07/04 14:48:22;;;;;;;3.53;1.50;;;;;;;;;;5302171;28;20032;-80
2022/07/04 14:50:54;;;;;;;4.20;1.70;;;;;;;;;;5275865;28;20116;-80
2022/07/04 14:53:25;;;;;;;3.90;1.70;;;;;;;;;;5281500;28;20045;-80
2022/07/04 14:55:56;;;;;;;2.90;1.50;;;;;;;;;;5305064;28;20457;-80
2022/07/04 14:58:27;;;;;;;14.45;2.38;;;;;;;;;;5305744;28;20055;-80
2022/07/04 15:00:59;;;;;;;8.80;1.80;;;;;;;;;;5281615;28;20072;-80
2022/07/04 15:03:30;;;;;;;5.70;1.50;;;;;;;;;;5277982;28;20036;-80
2022/07/04 15:06:01;;;;;;;6.50;1.40;;;;;;;;;;5263839;28;20029;-80
2022/07/04 15:08:32;;;;;;;3.30;1.50;;;;;;;;;;5278189;28;20029;-81
2022/07/04 15:11:03;;;;;;;6.33;1.60;;;;;;;;;;5280398;28;20394;-80
2022/07/04 15:13:35;;;;;;;3.73;1.80;;;;;;;;;;5278828;28;20436;-80
2022/07/04 15:16:07;;;;;;;7.37;1.90;;;;;;;;;;5279761;28;20032;-80
2022/07/04 15:18:39;;;;;;;4.88;1.65;;;;;;;;;;5280921;28;20281;-80
2022/07/04 15:24:16;;;;;;;4.47;1.90;;;;;;;;;;5282655;28;20033;-81
2022/07/04 15:26:49;;;;;;;6.10;2.35;;;;;;;;;;5283745;28;20025;-81
2022/07/04 15:29:21;;;;;;;7.68;2.13;;;;;;;;;;5283544;28;20032;-81
2022/07/04 15:31:53;;;;;;;7.70;1.80;;;;;;;;;;5276376;28;20033;-81
2022/07/04 15:34:24;;;;;;;6.63;2.00;;;;;;;;;;5275825;28;20037;-80
2022/07/04 15:36:55;;;;;;;6.17;2.20;;;;;;;;;;5280775;28;20284;-81